createdAt,value
2023-03-12T00:01:21.803Z,8.10
2023-03-12T00:03:49.579Z,10.13
2023-03-12T00:06:17.530Z,10.50
2023-03-12T00:08:44.327Z,13.57
2023-03-12T00:11:13.460Z,12.03
2023-03-12T00:13:40.272Z,13.75
2023-03-12T00:16:09.901Z,10.32
2023-03-12T00:18:36.692Z,10.43
2023-03-12T00:21:03.640Z,9.90
2023-03-12T00:23:30.453Z,9.93
2023-03-12T00:26:05.808Z,9.93
2023-03-12T00:28:32.506Z,11.90
2023-03-12T00:30:59.195Z,9.63
2023-03-12T00:33:27.311Z,16.15
2023-03-12T00:35:54.382Z,8.13
2023-03-12T00:38:21.407Z,9.05
2023-03-12T00:40:48.178Z,13.63
2023-03-12T00:43:14.919Z,9.45
2023-03-12T00:45:41.662Z,10.80
2023-03-12T00:48:08.299Z,8.33
2023-03-12T00:50:34.962Z,12.27
2023-03-12T00:53:01.780Z,11.88
2023-03-12T00:55:28.591Z,11.70
2023-03-12T00:57:55.214Z,9.20
2023-03-12T01:00:22.043Z,7.97
2023-03-12T01:02:48.770Z,13.93
2023-03-12T01:05:16.225Z,10.55
2023-03-12T01:07:43.244Z,9.73
2023-03-12T01:10:14.065Z,12.02
2023-03-12T01:12:41.468Z,8.70
2023-03-12T01:15:09.153Z,12.07
2023-03-12T01:17:35.800Z,10.48
2023-03-12T01:20:02.459Z,13.95
2023-03-12T01:22:29.071Z,10.13
2023-03-12T01:24:55.733Z,8.93
2023-03-12T01:27:22.410Z,9.02
2023-03-12T01:29:49.188Z,9.32
2023-03-12T01:32:17.086Z,11.43
2023-03-12T01:34:44.420Z,9.80
2023-03-12T01:37:11.376Z,11.37
2023-03-12T01:39:38.041Z,8.73
2023-03-12T01:42:04.849Z,9.57
2023-03-12T01:44:31.535Z,9.88
2023-03-12T01:46:58.108Z,8.93
2023-03-12T01:49:29.668Z,13.00
2023-03-12T01:52:14.181Z,8.88
2023-03-12T01:54:55.716Z,12.50
2023-03-12T01:57:26.877Z,12.52
2023-03-12T01:59:59.208Z,11.82
2023-03-12T02:02:28.741Z,5.90
2023-03-12T02:05:15.586Z,12.35
2023-03-12T02:07:42.294Z,9.90
2023-03-12T02:10:09.622Z,9.05
2023-03-12T02:12:36.528Z,7.47
2023-03-12T02:15:03.877Z,9.20
2023-03-12T02:17:31.748Z,9.50
2023-03-12T02:20:31.937Z,12.88
2023-03-12T02:23:10.088Z,12.55
2023-03-12T02:25:46.886Z,7.95
2023-03-12T02:28:16.408Z,12.60
2023-03-12T02:30:47.249Z,7.10
2023-03-12T02:33:15.375Z,7.53
2023-03-12T02:35:42.573Z,9.25
2023-03-12T02:38:34.367Z,10.00
2023-03-12T02:41:11.112Z,10.90
2023-03-12T02:43:38.553Z,7.25
2023-03-12T02:46:05.272Z,11.43
2023-03-12T02:48:31.933Z,8.93
2023-03-12T02:50:58.548Z,8.77
2023-03-12T02:53:25.375Z,9.90
2023-03-12T02:55:51.980Z,11.52
2023-03-12T02:58:18.609Z,8.93
2023-03-12T03:00:45.259Z,10.13
2023-03-12T03:03:11.812Z,8.13
2023-03-12T03:05:38.431Z,7.07
2023-03-12T03:08:05.628Z,7.78
2023-03-12T03:10:32.452Z,6.95
2023-03-12T03:12:59.119Z,7.78
2023-03-12T03:15:26.159Z,9.25
2023-03-12T03:17:52.903Z,6.50
2023-03-12T03:20:20.045Z,6.65
2023-03-12T03:22:46.806Z,11.57
2023-03-12T03:25:13.424Z,10.55
2023-03-12T03:27:40.085Z,7.55
2023-03-12T03:30:07.579Z,9.87
2023-03-12T03:32:34.273Z,12.10
2023-03-12T03:35:01.303Z,9.70
2023-03-12T03:37:27.868Z,6.18
2023-03-12T03:39:54.517Z,7.60
2023-03-12T03:42:21.105Z,10.00
2023-03-12T03:44:47.750Z,8.32
2023-03-12T03:47:14.356Z,10.85
2023-03-12T03:49:40.964Z,8.10
2023-03-12T03:52:07.752Z,8.55
2023-03-12T03:54:34.447Z,10.70
2023-03-12T03:57:01.181Z,7.25
2023-03-12T03:59:28.120Z,5.15
2023-03-12T04:01:55.834Z,9.00
2023-03-12T04:04:22.584Z,7.35
2023-03-12T04:06:49.168Z,7.47
2023-03-12T04:09:15.818Z,9.00
2023-03-12T04:11:42.486Z,7.45
2023-03-12T04:14:09.166Z,7.53
2023-03-12T04:16:35.819Z,7.78
2023-03-12T04:19:02.531Z,7.13
2023-03-12T04:21:29.146Z,7.68
2023-03-12T04:23:55.734Z,11.02
2023-03-12T04:26:22.307Z,7.63
2023-03-12T04:28:48.929Z,7.00
2023-03-12T04:31:15.746Z,10.23
2023-03-12T04:33:42.482Z,5.88
2023-03-12T04:36:09.231Z,5.60
2023-03-12T04:38:36.077Z,6.15
2023-03-12T04:41:07.334Z,8.43
2023-03-12T04:43:34.417Z,11.07
2023-03-12T04:46:02.787Z,7.95
2023-03-12T04:48:29.575Z,9.00
2023-03-12T04:50:56.204Z,7.78
2023-03-12T04:53:23.631Z,4.95
2023-03-12T04:55:50.980Z,10.70
2023-03-12T04:58:19.029Z,7.28
2023-03-12T05:00:45.929Z,9.20
2023-03-12T05:03:12.707Z,7.88
2023-03-12T05:05:39.294Z,10.23
2023-03-12T05:08:06.122Z,10.60
2023-03-12T05:10:33.258Z,9.82
2023-03-12T05:13:00.049Z,8.77
2023-03-12T05:15:26.798Z,9.85
2023-03-12T05:17:54.828Z,7.82
2023-03-12T05:20:21.868Z,11.40
2023-03-12T05:22:48.739Z,9.48
2023-03-12T05:25:15.413Z,7.95
2023-03-12T05:27:42.068Z,11.40
2023-03-12T05:30:09.712Z,10.43
2023-03-12T05:32:36.358Z,7.77
2023-03-12T05:35:03.133Z,11.95
2023-03-12T05:37:30.012Z,9.32
2023-03-12T05:39:56.635Z,9.32
2023-03-12T05:42:24.943Z,8.50
2023-03-12T05:44:52.327Z,7.03
2023-03-12T05:47:19.276Z,9.98
2023-03-12T05:49:46.054Z,9.70
2023-03-12T05:52:12.692Z,9.07
2023-03-12T05:54:39.365Z,11.68
2023-03-12T05:57:06.128Z,13.97
2023-03-12T05:59:32.760Z,7.10
2023-03-12T06:01:59.442Z,6.88
2023-03-12T06:04:26.084Z,11.48
2023-03-12T06:06:52.829Z,9.63
2023-03-12T06:09:19.609Z,10.63
2023-03-12T06:11:46.188Z,8.85
2023-03-12T06:14:13.102Z,9.77
2023-03-12T06:16:39.767Z,7.63
2023-03-12T06:19:07.734Z,10.88
2023-03-12T06:21:35.821Z,8.07
2023-03-12T06:24:03.142Z,10.50
2023-03-12T06:26:29.996Z,7.90
2023-03-12T06:28:56.710Z,8.75
2023-03-12T06:31:23.842Z,10.38
2023-03-12T06:33:51.103Z,8.30
2023-03-12T06:36:18.012Z,20.55
2023-03-12T06:38:44.671Z,10.82
2023-03-12T06:41:13.972Z,13.27
2023-03-12T06:43:41.415Z,10.77
2023-03-12T06:46:11.269Z,7.30
2023-03-12T06:48:41.053Z,8.35
2023-03-12T06:51:09.332Z,15.18
2023-03-12T06:53:36.285Z,13.13
2023-03-12T06:56:03.882Z,15.10
2023-03-12T06:58:30.573Z,14.27
2023-03-12T07:00:57.446Z,15.05
2023-03-12T07:03:24.174Z,18.13
2023-03-12T07:05:51.460Z,15.00
2023-03-12T07:08:18.857Z,6.38
2023-03-12T07:10:46.458Z,9.10
2023-03-12T07:13:13.180Z,11.70
2023-03-12T07:15:39.977Z,10.80
2023-03-12T07:18:08.264Z,10.15
2023-03-12T07:20:38.275Z,10.10
2023-03-12T07:23:05.654Z,10.73
2023-03-12T07:25:36.200Z,13.75
2023-03-12T07:28:03.172Z,13.73
2023-03-12T07:30:33.371Z,15.35
2023-03-12T07:33:04.743Z,14.63
2023-03-12T07:35:32.761Z,14.83
2023-03-12T07:38:01.449Z,15.80
2023-03-12T07:40:28.511Z,12.73
2023-03-12T07:42:55.568Z,11.70
2023-03-12T07:45:22.872Z,13.45
2023-03-12T07:47:50.120Z,14.10
2023-03-12T07:50:18.016Z,10.55
2023-03-12T07:52:45.571Z,10.82
2023-03-12T07:55:13.028Z,16.92
2023-03-12T07:57:39.815Z,13.40
2023-03-12T08:00:07.608Z,12.73
2023-03-12T08:02:34.786Z,11.02
2023-03-12T08:05:01.820Z,10.85
2023-03-12T08:07:32.377Z,12.02
2023-03-12T08:10:00.335Z,14.02
2023-03-12T08:12:27.998Z,16.67
2023-03-12T08:14:54.914Z,11.80
2023-03-12T08:17:21.708Z,15.57
2023-03-12T08:19:48.346Z,10.98
2023-03-12T08:22:16.172Z,14.00
2023-03-12T08:24:44.154Z,12.17
2023-03-12T08:27:12.284Z,12.55
2023-03-12T08:29:39.979Z,13.52
2023-03-12T08:32:07.142Z,13.75
2023-03-12T08:34:34.775Z,12.35
2023-03-12T08:37:01.382Z,11.97
2023-03-12T08:39:28.111Z,11.32
2023-03-12T08:41:55.495Z,12.73
2023-03-12T08:44:23.239Z,16.08
2023-03-12T08:46:50.288Z,10.75
2023-03-12T08:49:17.219Z,15.20
2023-03-12T08:51:43.809Z,11.75
2023-03-12T08:54:10.574Z,12.85
2023-03-12T08:56:41.771Z,16.45
2023-03-12T08:59:09.649Z,14.13
2023-03-12T09:01:36.275Z,14.63
2023-03-12T09:04:04.083Z,15.05
2023-03-12T09:06:30.954Z,15.13
2023-03-12T09:08:57.717Z,16.52
2023-03-12T09:11:24.487Z,18.02
2023-03-12T09:14:15.276Z,20.20
2023-03-12T09:16:37.661Z,19.33
2023-03-12T09:19:04.474Z,19.15
2023-03-12T09:21:31.133Z,18.33
2023-03-12T09:23:57.791Z,19.73
2023-03-12T09:26:24.523Z,21.03
2023-03-12T09:28:51.120Z,22.95
2023-03-12T09:31:17.858Z,23.25
2023-03-12T09:33:44.825Z,26.95
2023-03-12T09:36:11.625Z,23.90
2023-03-12T09:38:38.905Z,26.43
2023-03-12T09:41:11.965Z,26.50
2023-03-12T09:44:18.932Z,27.35
2023-03-12T09:46:52.230Z,23.27
2023-03-12T09:49:32.251Z,28.20
2023-03-12T09:52:00.323Z,29.63
2023-03-12T09:54:36.850Z,27.70
2023-03-12T09:57:09.074Z,31.20
2023-03-12T09:59:36.940Z,28.20
2023-03-12T10:02:17.228Z,26.95
2023-03-12T10:05:09.900Z,27.10
2023-03-12T10:07:45.886Z,25.17
2023-03-12T10:10:33.592Z,32.45
2023-03-12T10:13:32.369Z,27.23
2023-03-12T10:16:19.406Z,31.13
2023-03-12T10:19:22.049Z,32.27
2023-03-12T10:22:10.244Z,31.50
2023-03-12T10:24:51.741Z,32.88
2023-03-12T10:27:18.926Z,25.05
2023-03-12T10:29:49.945Z,35.97
2023-03-12T10:32:43.980Z,28.73
2023-03-12T10:35:22.594Z,33.55
2023-03-12T10:37:56.859Z,33.72
2023-03-12T10:40:35.941Z,33.92
2023-03-12T10:43:04.272Z,28.48
2023-03-12T10:45:59.305Z,30.97
2023-03-12T10:48:26.641Z,31.90
2023-03-12T10:51:10.934Z,33.22
2023-03-12T10:53:47.690Z,31.95
2023-03-12T10:56:17.563Z,30.27
2023-03-12T10:58:49.793Z,29.77
2023-03-12T11:01:21.802Z,27.98
2023-03-12T11:03:50.948Z,34.05
2023-03-12T11:06:35.620Z,32.38
2023-03-12T11:09:22.483Z,29.00
2023-03-12T11:11:50.769Z,31.77
2023-03-12T11:14:26.734Z,32.13
2023-03-12T11:16:54.293Z,34.65
2023-03-12T11:19:32.952Z,33.78
2023-03-12T11:22:02.686Z,30.90
2023-03-12T11:24:29.847Z,40.47
2023-03-12T11:27:02.303Z,33.15
2023-03-12T11:29:40.286Z,37.83
2023-03-12T11:32:18.739Z,34.65
2023-03-12T11:34:49.292Z,32.75
2023-03-12T11:37:45.162Z,28.37
2023-03-12T11:40:36.520Z,31.00
2023-03-12T11:43:42.173Z,35.78
2023-03-12T11:46:15.866Z,33.40
2023-03-12T11:48:55.270Z,41.33
2023-03-12T11:51:49.053Z,30.97
2023-03-12T11:54:30.580Z,32.50
2023-03-12T11:57:01.977Z,29.52
2023-03-12T12:00:00.525Z,30.13
2023-03-12T12:02:36.319Z,33.15
2023-03-12T12:05:25.606Z,26.47
2023-03-12T12:08:25.480Z,37.10
2023-03-12T12:11:16.897Z,40.47
2023-03-12T12:13:58.871Z,32.83
2023-03-12T12:16:50.995Z,29.20
2023-03-12T12:19:39.222Z,32.13
2023-03-12T12:22:26.637Z,26.38
2023-03-12T12:25:25.339Z,26.33
2023-03-12T12:28:28.801Z,36.78
2023-03-12T12:31:23.272Z,37.78
2023-03-12T12:34:26.914Z,31.37
2023-03-12T12:37:21.211Z,34.20
2023-03-12T12:39:58.218Z,34.97
2023-03-12T12:42:29.012Z,35.05
2023-03-12T12:44:58.883Z,38.67
2023-03-12T12:47:46.449Z,32.30
2023-03-12T12:50:21.267Z,35.97
2023-03-12T12:52:56.822Z,35.55
2023-03-12T12:55:50.444Z,42.83
2023-03-12T12:58:24.389Z,37.67
2023-03-12T13:00:57.416Z,30.60
2023-03-12T13:03:25.841Z,32.50
2023-03-12T13:05:52.436Z,38.70
2023-03-12T13:08:42.893Z,38.10
2023-03-12T13:11:20.273Z,40.47
2023-03-12T13:14:02.734Z,34.37
2023-03-12T13:16:39.082Z,35.42
2023-03-12T13:19:08.805Z,45.33
2023-03-12T13:21:58.407Z,39.22
2023-03-12T13:24:31.590Z,33.30
2023-03-12T13:27:12.212Z,37.33
2023-03-12T13:29:41.392Z,39.40
2023-03-12T13:32:38.801Z,37.97
2023-03-12T13:35:11.811Z,33.45
2023-03-12T13:37:53.726Z,41.88
2023-03-12T13:40:29.302Z,35.57
2023-03-12T13:43:08.279Z,46.88
2023-03-12T13:45:48.049Z,33.38
2023-03-12T13:48:18.066Z,40.67
2023-03-12T13:50:58.707Z,39.25
2023-03-12T13:53:40.010Z,37.57
2023-03-12T13:56:13.404Z,31.20
2023-03-12T13:58:56.863Z,33.15
2023-03-12T14:01:29.061Z,37.55
2023-03-12T14:04:03.907Z,34.20
2023-03-12T14:06:32.326Z,38.83
2023-03-12T14:09:27.031Z,31.63
2023-03-12T14:12:00.992Z,33.65
2023-03-12T14:14:47.863Z,34.50
2023-03-12T14:17:25.476Z,32.10
2023-03-12T14:20:11.624Z,38.57
2023-03-12T14:22:41.319Z,35.65
2023-03-12T14:25:43.447Z,33.97
2023-03-12T14:28:20.920Z,28.13
2023-03-12T14:31:10.526Z,40.08
2023-03-12T14:33:47.036Z,36.57
2023-03-12T14:36:18.627Z,29.98
2023-03-12T14:38:47.232Z,30.77
2023-03-12T14:41:25.424Z,23.58
2023-03-12T14:43:54.171Z,29.20
2023-03-12T14:46:23.329Z,26.40
2023-03-12T14:48:52.286Z,26.25
2023-03-12T14:51:24.234Z,27.88
2023-03-12T14:53:52.182Z,28.23
2023-03-12T14:56:29.253Z,25.80
2023-03-12T14:58:58.149Z,31.23
2023-03-12T15:01:31.759Z,26.75
2023-03-12T15:04:14.533Z,26.25
2023-03-12T15:06:49.200Z,28.92
2023-03-12T15:09:26.048Z,26.20
2023-03-12T15:11:58.698Z,28.57
2023-03-12T15:14:28.325Z,29.85
2023-03-12T15:16:55.927Z,32.17
2023-03-12T15:19:29.047Z,30.80
2023-03-12T15:21:56.105Z,35.15
2023-03-12T15:24:22.834Z,31.73
2023-03-12T15:26:49.503Z,27.33
2023-03-12T15:29:28.056Z,35.53
2023-03-12T15:31:57.560Z,30.50
2023-03-12T15:34:33.935Z,28.88
2023-03-12T15:37:02.574Z,37.73
2023-03-12T15:39:35.406Z,36.63
2023-03-12T15:42:17.277Z,28.42
2023-03-12T15:44:54.522Z,28.35
2023-03-12T15:47:24.984Z,26.25
2023-03-12T15:50:13.173Z,30.73
2023-03-12T15:52:39.788Z,33.67
2023-03-12T15:55:12.132Z,28.58
2023-03-12T15:57:45.892Z,28.60
2023-03-12T16:00:12.460Z,31.15
2023-03-12T16:02:50.376Z,27.87
2023-03-12T16:05:18.513Z,26.83
2023-03-12T16:07:45.173Z,31.55
2023-03-12T16:10:15.638Z,36.78
2023-03-12T16:12:43.983Z,25.25
2023-03-12T16:15:27.627Z,34.27
2023-03-12T16:17:54.303Z,25.10
2023-03-12T16:20:20.948Z,23.85
2023-03-12T16:22:47.611Z,22.98
2023-03-12T16:25:14.353Z,38.47
2023-03-12T16:27:53.895Z,34.23
2023-03-12T16:30:29.906Z,38.00
2023-03-12T16:32:58.342Z,40.03
2023-03-12T16:35:26.934Z,33.15
2023-03-12T16:37:54.195Z,30.35
2023-03-12T16:40:32.624Z,41.90
2023-03-12T16:43:03.383Z,31.55
2023-03-12T16:45:31.257Z,30.48
2023-03-12T16:48:03.460Z,33.60
2023-03-12T16:50:30.771Z,30.92
2023-03-12T16:52:57.980Z,40.10
2023-03-12T16:55:28.412Z,33.25
2023-03-12T16:58:00.662Z,33.33
2023-03-12T17:00:30.518Z,35.80
2023-03-12T17:02:57.828Z,37.40
2023-03-12T17:05:29.396Z,36.47
2023-03-12T17:07:56.959Z,31.42
2023-03-12T17:10:24.869Z,41.17
2023-03-12T17:12:52.047Z,38.50
2023-03-12T17:15:27.362Z,41.45
2023-03-12T17:17:59.329Z,36.90
2023-03-12T17:20:26.265Z,40.63
2023-03-12T17:22:53.099Z,39.55
2023-03-12T17:25:26.969Z,34.03
2023-03-12T17:27:56.361Z,34.88
2023-03-12T17:30:23.877Z,34.53
2023-03-12T17:32:51.689Z,41.88
2023-03-12T17:35:19.612Z,33.13
2023-03-12T17:37:48.387Z,33.40
2023-03-12T17:40:16.309Z,34.13
2023-03-12T17:42:42.905Z,27.23
2023-03-12T17:45:10.460Z,30.67
2023-03-12T17:47:37.814Z,43.40
2023-03-12T17:50:06.471Z,29.75
2023-03-12T17:52:33.954Z,29.58
2023-03-12T17:55:01.107Z,32.07
2023-03-12T17:57:28.070Z,24.63
2023-03-12T17:59:54.924Z,32.28
2023-03-12T18:02:21.666Z,26.00
2023-03-12T18:04:48.409Z,29.05
2023-03-12T18:07:15.082Z,24.70
2023-03-12T18:09:41.796Z,27.15
2023-03-12T18:12:08.407Z,18.88
2023-03-12T18:14:35.050Z,18.95
2023-03-12T18:17:01.707Z,25.40
2023-03-12T18:19:29.306Z,23.73
2023-03-12T18:21:55.943Z,16.48
2023-03-12T18:24:22.598Z,17.38
2023-03-12T18:26:51.538Z,16.17
2023-03-12T18:29:18.408Z,20.48
2023-03-12T18:31:45.119Z,17.30
2023-03-12T18:34:11.731Z,15.23
2023-03-12T18:36:38.409Z,11.15
2023-03-12T18:39:06.407Z,11.73
2023-03-12T18:41:33.280Z,18.50
2023-03-12T18:44:00.338Z,11.47
2023-03-12T18:46:27.894Z,13.02
2023-03-12T18:48:54.773Z,16.60
2023-03-12T18:51:21.401Z,16.55
2023-03-12T18:53:48.021Z,14.68
2023-03-12T18:56:14.794Z,18.90
2023-03-12T18:58:41.433Z,19.08
2023-03-12T19:01:08.096Z,15.05
2023-03-12T19:03:36.299Z,21.40
2023-03-12T19:06:10.428Z,15.05
2023-03-12T19:08:38.400Z,17.13
2023-03-12T19:11:10.659Z,12.48
2023-03-12T19:13:37.654Z,14.75
2023-03-12T19:16:08.579Z,17.38
2023-03-12T19:18:38.524Z,12.73
2023-03-12T19:21:07.578Z,12.90
2023-03-12T19:23:35.529Z,18.50
2023-03-12T19:26:02.549Z,14.98
2023-03-12T19:28:29.367Z,13.20
2023-03-12T19:31:03.332Z,15.40
2023-03-12T19:33:30.574Z,9.43
2023-03-12T19:35:57.845Z,11.73
2023-03-12T19:38:24.785Z,17.75
2023-03-12T19:40:55.252Z,14.63
2023-03-12T19:43:22.623Z,13.57
2023-03-12T19:45:49.237Z,14.67
2023-03-12T19:48:16.084Z,17.63
2023-03-12T19:50:46.226Z,22.88
2023-03-12T19:53:13.445Z,16.85
2023-03-12T19:55:40.120Z,15.82
2023-03-12T19:58:08.121Z,22.20
2023-03-12T20:00:35.245Z,16.08
2023-03-12T20:03:02.035Z,21.92
2023-03-12T20:05:28.696Z,15.70
2023-03-12T20:07:55.272Z,19.88
2023-03-12T20:10:21.983Z,19.17
2023-03-12T20:12:48.654Z,21.02
2023-03-12T20:15:15.373Z,19.23
2023-03-12T20:17:41.969Z,19.55
2023-03-12T20:20:09.321Z,16.95
2023-03-12T20:22:36.396Z,19.97
2023-03-12T20:25:05.371Z,21.15
2023-03-12T20:27:34.015Z,30.55
2023-03-12T20:30:00.774Z,18.13
2023-03-12T20:32:28.660Z,25.55
2023-03-12T20:34:55.483Z,24.03
2023-03-12T20:37:22.143Z,25.67
2023-03-12T20:39:48.738Z,26.02
2023-03-12T20:42:15.296Z,29.20
2023-03-12T20:44:41.962Z,28.75
2023-03-12T20:47:08.553Z,21.83
2023-03-12T20:49:35.137Z,22.40
2023-03-12T20:52:01.864Z,23.80
2023-03-12T20:54:28.451Z,31.42
2023-03-12T20:56:55.178Z,30.80
2023-03-12T20:59:21.790Z,23.20
2023-03-12T21:01:48.390Z,33.22
2023-03-12T21:04:15.367Z,30.48
2023-03-12T21:06:42.034Z,29.45
2023-03-12T21:09:08.665Z,23.50
2023-03-12T21:11:35.397Z,37.30
2023-03-12T21:14:02.013Z,28.58
2023-03-12T21:16:28.683Z,28.95
2023-03-12T21:18:56.884Z,35.60
2023-03-12T21:21:23.639Z,25.88
2023-03-12T21:23:50.327Z,28.10
2023-03-12T21:26:18.576Z,24.92
2023-03-12T21:28:45.959Z,29.00
2023-03-12T21:31:16.051Z,31.95
2023-03-12T21:33:43.097Z,25.73
2023-03-12T21:36:12.256Z,32.10
2023-03-12T21:38:40.017Z,32.60
2023-03-12T21:41:08.939Z,22.50
2023-03-12T21:43:36.064Z,33.05
2023-03-12T21:46:07.361Z,35.08
2023-03-12T21:48:34.871Z,23.17
2023-03-12T21:51:06.303Z,29.88
2023-03-12T21:53:34.439Z,25.70
2023-03-12T21:56:02.166Z,33.72
2023-03-12T21:58:29.896Z,35.53
2023-03-12T22:01:10.322Z,32.20
2023-03-12T22:03:37.736Z,29.25
2023-03-12T22:06:05.960Z,34.10
2023-03-12T22:08:32.926Z,33.75
2023-03-12T22:10:59.828Z,36.38
2023-03-12T22:13:26.536Z,29.57
2023-03-12T22:15:56.502Z,37.13
2023-03-12T22:18:23.913Z,32.30
2023-03-12T22:20:59.153Z,39.28
2023-03-12T22:23:26.177Z,31.75
2023-03-12T22:25:52.826Z,35.20
2023-03-12T22:28:19.653Z,36.78
2023-03-12T22:30:46.610Z,32.80
2023-03-12T22:33:13.848Z,31.23
2023-03-12T22:35:48.263Z,31.80
2023-03-12T22:38:15.088Z,31.93
2023-03-12T22:40:42.136Z,29.52
2023-03-12T22:43:08.931Z,32.17
2023-03-12T22:45:36.363Z,36.75
2023-03-12T22:48:03.195Z,31.75
2023-03-12T22:50:30.060Z,29.03
2023-03-12T22:52:56.690Z,30.02
2023-03-12T22:55:23.312Z,35.53
2023-03-12T22:57:50.070Z,25.45
2023-03-12T23:00:19.361Z,34.90
2023-03-12T23:02:45.960Z,37.10
2023-03-12T23:05:12.560Z,28.38
2023-03-12T23:07:39.271Z,36.72
2023-03-12T23:10:06.828Z,30.02
2023-03-12T23:12:33.518Z,28.58
2023-03-12T23:15:00.181Z,30.07
2023-03-12T23:17:26.740Z,33.85
2023-03-12T23:19:53.746Z,33.08
2023-03-12T23:22:20.356Z,27.15
2023-03-12T23:24:47.006Z,28.75
2023-03-12T23:27:13.661Z,28.37
2023-03-12T23:29:40.286Z,32.60
2023-03-12T23:32:07.088Z,31.20
2023-03-12T23:34:34.545Z,35.58
2023-03-12T23:37:01.192Z,25.90
2023-03-12T23:39:29.851Z,22.80
2023-03-12T23:41:57.550Z,28.95
2023-03-12T23:44:24.744Z,26.20
2023-03-12T23:46:51.682Z,32.58
2023-03-12T23:49:18.396Z,32.83
2023-03-12T23:51:45.175Z,28.83
2023-03-12T23:54:11.820Z,33.65
2023-03-12T23:56:40.639Z,27.40
2023-03-12T23:59:08.919Z,26.13
